Search METAR Data

METAR Data for GMFK:

GMFK 241200Z 18004KT 110V280 CAVOK 25/01 Q1017 NOSIG